Temp: 17.6°C   Baro: 1015.5mb
  Wind: 11.0mph   Dir: WNW (303°)
  Rain: 9.6mm (0.0mm/hr)
  Solar: 696W/m2  Hum: 65%
 
Bath Spa Weather Historical Data
Daily Summary for May 17, 2019 Units:  Metric    English   Both
Next Day »
Daily Weekly Monthly Yearly Custom
  High: Low: Average:
Temperature: 13.0 °C 7.3 °C 10.5 °C
Dew Point: 10.2 °C 4.2 °C 7.2 °C
Humidity: 91% 66% 81%
Wind Speed: 16.1km/h 0.0km/h 2.8km/h
Wind Gust: 19.3km/h - -
Wind direction- - East
Pressure: 1013.8 hPa 1007.0 hPa -
Precipitation: 0.5 mm    
Historical Graphs
 
 
Tabular Data for May 17, 2019
Time Temperature Dew Point Pressure Wind direction Wind Speed Wind Gust Humidity Rainfall Rate (Hourly) solar
00:04 10.5 °C 4.8 °C 1013.8 hPa ESE 8.0 km/h 8.0 km/h 68% 0.0 mm 0.00 W/m2
00:09 10.5 °C 4.6 °C 1013.8 hPa ESE 14.5 km/h 14.5 km/h 67% 0.0 mm 0.00 W/m2
00:14 10.5 °C 4.6 °C 1013.8 hPa East 1.4 km/h 11.3 km/h 67% 0.0 mm 0.00 W/m2
00:19 10.6 °C 4.5 °C 1013.8 hPa Calm   4.8 km/h 66% 0.0 mm 0.00 W/m2
00:24 10.5 °C 4.4 °C 1013.8 hPa East 3.2 km/h 4.8 km/h 66% 0.0 mm 0.00 W/m2
00:29 10.5 °C 4.4 °C 1013.8 hPa Calm   12.9 km/h 66% 0.0 mm 0.00 W/m2
00:34 10.4 °C 4.5 °C 1013.8 hPa East 7.9 km/h 12.9 km/h 67% 0.0 mm 0.00 W/m2
00:39 10.4 °C 4.5 °C 1013.4 hPa ESE 6.4 km/h 9.7 km/h 67% 0.0 mm 0.00 W/m2
00:44 10.3 °C 4.4 °C 1013.4 hPa ESE 1.4 km/h 4.8 km/h 67% 0.0 mm 0.00 W/m2
00:49 10.3 °C 4.7 °C 1013.4 hPa SE 3.2 km/h 12.9 km/h 68% 0.0 mm 0.00 W/m2
00:54 10.2 °C 4.6 °C 1013.4 hPa East 4.7 km/h 9.7 km/h 68% 0.0 mm 0.00 W/m2
00:59 10.2 °C 4.6 °C 1013.4 hPa ESE 4.7 km/h 12.9 km/h 68% 0.0 mm 0.00 W/m2
01:04 10.0 °C 4.4 °C 1013.4 hPa SE 1.4 km/h 4.8 km/h 68% 0.0 mm 0.00 W/m2
01:09 9.9 °C 4.5 °C 1013.4 hPa SE 1.4 km/h 3.2 km/h 69% 0.0 mm 0.00 W/m2
01:14 9.8 °C 4.4 °C 1013.1 hPa SE 1.4 km/h 3.2 km/h 69% 0.0 mm 0.00 W/m2
01:19 9.6 °C 4.4 °C 1013.1 hPa East 4.7 km/h 8.0 km/h 70% 0.0 mm 0.00 W/m2
01:24 9.5 °C 4.3 °C 1013.1 hPa ENE 14.5 km/h 14.5 km/h 70% 0.0 mm 0.00 W/m2
01:29 9.6 °C 4.4 °C 1013.1 hPa ESE 4.7 km/h 17.7 km/h 70% 0.0 mm 0.00 W/m2
01:34 9.6 °C 4.4 °C 1013.1 hPa Calm   11.3 km/h 70% 0.0 mm 0.00 W/m2
01:39 9.6 °C 4.4 °C 1012.8 hPa NNE 12.9 km/h 12.9 km/h 70% 0.0 mm 0.00 W/m2
01:44 9.5 °C 4.3 °C 1012.8 hPa ENE 1.4 km/h 8.0 km/h 70% 0.0 mm 0.00 W/m2
01:49 9.5 °C 4.3 °C 1012.8 hPa ENE 1.4 km/h 4.8 km/h 70% 0.0 mm 0.00 W/m2
01:54 9.4 °C 4.4 °C 1012.8 hPa Calm     71% 0.0 mm 0.00 W/m2
01:59 9.3 °C 4.3 °C 1012.8 hPa Calm   6.4 km/h 71% 0.0 mm 0.00 W/m2
02:04 9.2 °C 4.2 °C 1012.8 hPa ENE 4.7 km/h 14.5 km/h 71% 0.0 mm 0.00 W/m2
02:09 9.2 °C 4.4 °C 1012.8 hPa NNE 3.2 km/h 11.3 km/h 72% 0.0 mm 0.00 W/m2
02:14 9.1 °C 4.3 °C 1012.8 hPa ENE 4.7 km/h 9.7 km/h 72% 0.0 mm 0.00 W/m2
02:19 9.1 °C 4.3 °C 1012.4 hPa ENE 1.4 km/h 3.2 km/h 72% 0.0 mm 0.00 W/m2
02:24 9.0 °C 4.4 °C 1012.4 hPa NNE 1.4 km/h 14.5 km/h 73% 0.0 mm 0.00 W/m2
02:29 8.9 °C 4.3 °C 1012.4 hPa ESE 3.2 km/h 8.0 km/h 73% 0.0 mm 0.00 W/m2
02:34 8.9 °C 4.3 °C 1012.4 hPa NE 1.4 km/h 4.8 km/h 73% 0.0 mm 0.00 W/m2
02:39 8.9 °C 4.5 °C 1012.4 hPa ENE 1.4 km/h 9.7 km/h 74% 0.0 mm 0.00 W/m2
02:44 8.9 °C 4.5 °C 1012.4 hPa ENE 3.2 km/h 8.0 km/h 74% 0.0 mm 0.00 W/m2
02:49 8.9 °C 4.5 °C 1012.4 hPa Calm   4.8 km/h 74% 0.0 mm 0.00 W/m2
02:54 8.8 °C 4.4 °C 1012.1 hPa ENE 3.2 km/h 6.4 km/h 74% 0.0 mm 0.00 W/m2
02:59 8.8 °C 4.4 °C 1012.1 hPa NNE 4.7 km/h 6.4 km/h 74% 0.0 mm 0.00 W/m2
03:04 8.7 °C 4.5 °C 1012.1 hPa East 7.9 km/h 12.9 km/h 75% 0.0 mm 0.00 W/m2
03:09 8.7 °C 4.5 °C 1012.1 hPa ENE 1.4 km/h 3.2 km/h 75% 0.0 mm 0.00 W/m2
03:14 8.6 °C 4.4 °C 1012.1 hPa ENE 6.4 km/h 6.4 km/h 75% 0.0 mm 0.00 W/m2
03:19 8.5 °C 4.3 °C 1012.1 hPa Calm   4.8 km/h 75% 0.0 mm 0.00 W/m2
03:24 8.4 °C 4.2 °C 1012.1 hPa ENE 9.7 km/h 14.5 km/h 75% 0.0 mm 0.00 W/m2
03:29 8.4 °C 4.4 °C 1012.1 hPa NE 4.7 km/h 8.0 km/h 76% 0.0 mm 0.00 W/m2
03:34 8.3 °C 4.3 °C 1012.1 hPa NE 7.9 km/h 8.0 km/h 76% 0.0 mm 0.00 W/m2
03:39 8.2 °C 4.2 °C 1012.1 hPa NE 16.1 km/h 16.1 km/h 76% 0.0 mm 0.00 W/m2
03:44 8.1 °C 4.3 °C 1011.7 hPa ENE 4.7 km/h 11.3 km/h 77% 0.0 mm 0.00 W/m2
03:49 8.0 °C 4.4 °C 1012.1 hPa NNE 3.2 km/h 9.7 km/h 78% 0.0 mm 0.00 W/m2
03:54 8.0 °C 4.4 °C 1011.7 hPa ENE 4.7 km/h 6.4 km/h 78% 0.0 mm 0.00 W/m2
03:59 7.9 °C 4.5 °C 1011.7 hPa NE 3.2 km/h 11.3 km/h 79% 0.0 mm 0.00 W/m2
04:04 7.9 °C 4.5 °C 1011.7 hPa Calm   4.8 km/h 79% 0.0 mm 0.00 W/m2
04:09 7.8 °C 4.6 °C 1011.7 hPa NE 4.7 km/h 8.0 km/h 80% 0.0 mm 0.00 W/m2
04:14 7.7 °C 4.5 °C 1011.7 hPa Calm   3.2 km/h 80% 0.0 mm 0.00 W/m2
04:19 7.6 °C 4.4 °C 1011.7 hPa Calm   3.2 km/h 80% 0.0 mm 0.00 W/m2
04:24 7.5 °C 4.5 °C 1011.7 hPa NE 1.4 km/h 4.8 km/h 81% 0.0 mm 0.00 W/m2
04:29 7.5 °C 4.5 °C 1011.7 hPa NE 1.4 km/h 3.2 km/h 81% 0.0 mm 0.00 W/m2
04:34 7.4 °C 4.4 °C 1011.7 hPa Calm   8.0 km/h 81% 0.0 mm 0.00 W/m2
04:39 7.4 °C 4.5 °C 1011.7 hPa NE 1.4 km/h 4.8 km/h 82% 0.0 mm 0.00 W/m2
04:44 7.4 °C 4.5 °C 1011.7 hPa ENE 4.7 km/h 8.0 km/h 82% 0.0 mm 0.00 W/m2
04:49 7.4 °C 4.5 °C 1011.4 hPa ENE 4.7 km/h 4.8 km/h 82% 0.0 mm 0.00 W/m2
04:54 7.4 °C 4.5 °C 1011.4 hPa Calm   4.8 km/h 82% 0.0 mm 0.00 W/m2
04:59 7.4 °C 4.7 °C 1011.4 hPa Calm   1.6 km/h 83% 0.0 mm 0.00 W/m2
05:04 7.4 °C 4.7 °C 1011.4 hPa NNE 3.2 km/h 9.7 km/h 83% 0.0 mm 0.00 W/m2
05:09 7.4 °C 4.7 °C 1011.4 hPa Calm     83% 0.0 mm 0.00 W/m2
05:14 7.3 °C 4.6 °C 1011.1 hPa Calm   3.2 km/h 83% 0.0 mm 0.00 W/m2
05:19 7.4 °C 4.9 °C 1011.4 hPa ENE 3.2 km/h 4.8 km/h 84% 0.0 mm 0.00 W/m2
05:24 7.4 °C 4.9 °C 1011.4 hPa Calm     84% 0.0 mm 0.00 W/m2
05:29 7.4 °C 4.9 °C 1011.4 hPa ENE 7.9 km/h 8.0 km/h 84% 0.0 mm 7.00 W/m2
05:34 7.4 °C 4.9 °C 1011.1 hPa NNW 4.7 km/h 6.4 km/h 84% 0.0 mm 12.00 W/m2
05:39 7.5 °C 5.1 °C 1011.4 hPa East 3.2 km/h 12.9 km/h 85% 0.0 mm 14.00 W/m2
05:44 7.5 °C 5.1 °C 1011.1 hPa Calm     85% 0.0 mm 11.00 W/m2
05:49 7.5 °C 5.0 °C 1011.1 hPa ENE 1.4 km/h 8.0 km/h 84% 0.0 mm 11.00 W/m2
05:54 7.5 °C 5.1 °C 1011.1 hPa ESE 7.9 km/h 8.0 km/h 85% 0.0 mm 12.00 W/m2
05:59 7.7 °C 5.3 °C 1011.1 hPa East 3.2 km/h 3.2 km/h 85% 0.0 mm 14.00 W/m2
06:04 7.7 °C 5.3 °C 1011.1 hPa East 8.0 km/h 8.0 km/h 85% 0.0 mm 5.00 W/m2
06:09 7.8 °C 5.4 °C 1011.1 hPa Calm   3.2 km/h 85% 0.0 mm 18.00 W/m2
06:14 7.9 °C 5.5 °C 1011.1 hPa North 4.7 km/h 6.4 km/h 85% 0.0 mm 12.00 W/m2
06:19 8.0 °C 5.6 °C 1011.1 hPa NE 4.7 km/h 11.3 km/h 85% 0.0 mm 11.00 W/m2
06:24 8.2 °C 5.8 °C 1011.1 hPa NE 4.7 km/h 12.9 km/h 85% 0.0 mm 9.00 W/m2
06:29 8.2 °C 5.8 °C 1011.1 hPa NE 3.2 km/h 4.8 km/h 85% 0.0 mm 7.00 W/m2
06:34 8.3 °C 5.9 °C 1011.1 hPa Calm   3.2 km/h 85% 0.0 mm 5.00 W/m2
06:39 8.4 °C 6.0 °C 1011.1 hPa Calm   1.6 km/h 85% 0.0 mm 5.00 W/m2
06:44 8.4 °C 6.0 °C 1011.1 hPa Calm   1.6 km/h 85% 0.0 mm 5.00 W/m2
06:49 8.5 °C 6.1 °C 1011.1 hPa NNE 1.4 km/h 1.6 km/h 85% 0.0 mm 7.00 W/m2
06:54 8.5 °C 6.1 °C 1011.1 hPa Calm   1.6 km/h 85% 0.0 mm 11.00 W/m2
06:59 8.6 °C 6.2 °C 1011.1 hPa NNE 6.4 km/h 6.4 km/h 85% 0.0 mm 12.00 W/m2
07:04 8.4 °C 6.0 °C 1011.1 hPa WNW 8.0 km/h 8.0 km/h 85% 0.3 mm 14.00 W/m2
07:09 7.8 °C 5.4 °C 1011.1 hPa West 4.7 km/h 9.7 km/h 85% 0.3 mm 21.00 W/m2
07:14 7.6 °C 5.4 °C 1011.1 hPa West 1.4 km/h 3.2 km/h 86% 0.3 mm 21.00 W/m2
07:19 7.6 °C 5.6 °C 1011.1 hPa West 1.4 km/h 4.8 km/h 87% 0.3 mm 21.00 W/m2
07:24 7.5 °C 5.5 °C 1011.1 hPa West 6.4 km/h 6.4 km/h 87% 0.5 mm 28.00 W/m2
07:29 7.5 °C 5.6 °C 1010.7 hPa West 3.2 km/h 8.0 km/h 88% 0.5 mm 32.00 W/m2
07:33 7.4 °C 5.5 °C 1011.1 hPa West 3.2 km/h 6.4 km/h 88% 0.5 mm 37.00 W/m2
07:44 7.7 °C 6.0 °C 1010.7 hPa Calm   3.2 km/h 89% 0.5 mm 74.00 W/m2
07:49 7.7 °C 6.0 °C 1010.7 hPa Calm     89% 0.5 mm 86.00 W/m2
07:54 7.9 °C 6.4 °C 1010.7 hPa Calm   1.6 km/h 90% 0.5 mm 100.00 W/m2
07:59 8.0 °C 6.5 °C 1010.7 hPa West 4.8 km/h 4.8 km/h 90% 0.5 mm 100.00 W/m2
08:04 8.2 °C 6.7 °C 1010.7 hPa West 4.7 km/h 4.8 km/h 90% 0.3 mm 88.00 W/m2
08:09 8.2 °C 6.7 °C 1010.7 hPa Calm   4.8 km/h 90% 0.3 mm 142.00 W/m2
08:14 8.3 °C 6.8 °C 1010.4 hPa Calm   3.2 km/h 90% 0.3 mm 134.00 W/m2
08:19 8.4 °C 6.9 °C 1010.4 hPa Calm     90% 0.3 mm 120.00 W/m2
08:24 8.6 °C 7.2 °C 1010.4 hPa Calm   1.6 km/h 91% 0.0 mm 100.00 W/m2
08:29 8.8 °C 7.4 °C 1010.4 hPa Calm   1.6 km/h 91% 0.0 mm 111.00 W/m2
08:34 9.0 °C 7.6 °C 1010.4 hPa Calm     91% 0.0 mm 148.00 W/m2
08:39 9.1 °C 7.7 °C 1010.4 hPa NNW 6.4 km/h 6.4 km/h 91% 0.0 mm 113.00 W/m2
08:44 9.2 °C 7.8 °C 1010.0 hPa Calm   4.8 km/h 91% 0.0 mm 104.00 W/m2
08:49 9.2 °C 7.6 °C 1010.0 hPa North 9.7 km/h 9.7 km/h 90% 0.0 mm 137.00 W/m2
08:54 9.3 °C 7.7 °C 1010.0 hPa North 3.2 km/h 8.0 km/h 90% 0.0 mm 132.00 W/m2
08:59 9.5 °C 7.9 °C 1010.0 hPa North 3.2 km/h 9.7 km/h 90% 0.0 mm 102.00 W/m2
09:04 9.5 °C 7.8 °C 1010.0 hPa Calm   8.0 km/h 89% 0.0 mm 91.00 W/m2
09:09 9.7 °C 8.0 °C 1010.0 hPa NNE 4.7 km/h 11.3 km/h 89% 0.0 mm 79.00 W/m2
09:14 9.7 °C 7.8 °C 1010.0 hPa North 6.4 km/h 6.4 km/h 88% 0.0 mm 76.00 W/m2
09:19 9.7 °C 7.8 °C 1010.0 hPa NNW 3.2 km/h 6.4 km/h 88% 0.0 mm 100.00 W/m2
09:24 9.8 °C 7.7 °C 1010.0 hPa NE 3.2 km/h 8.0 km/h 87% 0.0 mm 128.00 W/m2
09:29 9.9 °C 7.8 °C 1010.0 hPa NW 3.2 km/h 9.7 km/h 87% 0.0 mm 109.00 W/m2
09:34 9.9 °C 7.7 °C 1010.0 hPa Calm   12.9 km/h 86% 0.0 mm 104.00 W/m2
09:39 9.9 °C 7.7 °C 1010.0 hPa Calm   4.8 km/h 86% 0.0 mm 84.00 W/m2
09:44 10.0 °C 7.8 °C 1010.0 hPa NE 7.9 km/h 11.3 km/h 86% 0.0 mm 109.00 W/m2
09:49 9.8 °C 7.6 °C 1010.0 hPa NE 6.4 km/h 17.7 km/h 86% 0.0 mm 120.00 W/m2
09:54 9.7 °C 7.6 °C 1009.7 hPa NE 4.7 km/h 11.3 km/h 87% 0.0 mm 97.00 W/m2
09:59 9.7 °C 7.6 °C 1009.7 hPa NE 4.7 km/h 11.3 km/h 87% 0.0 mm 107.00 W/m2
10:04 9.5 °C 7.4 °C 1009.7 hPa NE 4.7 km/h 14.5 km/h 87% 0.0 mm 105.00 W/m2
10:09 9.6 °C 7.7 °C 1009.7 hPa NNE 3.2 km/h 3.2 km/h 88% 0.0 mm 118.00 W/m2
10:14 9.7 °C 7.8 °C 1009.4 hPa Calm   8.0 km/h 88% 0.0 mm 163.00 W/m2
10:19 9.8 °C 7.9 °C 1009.4 hPa NNE 1.4 km/h 12.9 km/h 88% 0.0 mm 178.00 W/m2
10:24 9.7 °C 7.8 °C 1009.4 hPa NNE 4.7 km/h 14.5 km/h 88% 0.0 mm 139.00 W/m2
10:29 9.8 °C 7.9 °C 1009.4 hPa Calm   8.0 km/h 88% 0.0 mm 111.00 W/m2
10:34 9.9 °C 8.0 °C 1009.4 hPa Calm   4.8 km/h 88% 0.0 mm 77.00 W/m2
10:39 9.8 °C 7.7 °C 1009.4 hPa NE 1.4 km/h 12.9 km/h 87% 0.0 mm 97.00 W/m2
10:44 9.9 °C 7.8 °C 1009.4 hPa Calm   8.0 km/h 87% 0.0 mm 91.00 W/m2
10:49 9.9 °C 7.8 °C 1009.4 hPa NNE 9.7 km/h 12.9 km/h 87% 0.0 mm 107.00 W/m2
10:54 9.9 °C 7.7 °C 1009.4 hPa North 1.4 km/h 6.4 km/h 86% 0.0 mm 121.00 W/m2
10:59 10.0 °C 7.8 °C 1009.4 hPa North 1.4 km/h 11.3 km/h 86% 0.0 mm 146.00 W/m2
11:04 10.2 °C 8.0 °C 1009.4 hPa ENE 4.7 km/h 6.4 km/h 86% 0.0 mm 139.00 W/m2
11:09 10.3 °C 8.1 °C 1009.4 hPa Calm   3.2 km/h 86% 0.0 mm 128.00 W/m2
11:14 10.4 °C 8.2 °C 1009.4 hPa Calm   9.7 km/h 86% 0.0 mm 125.00 W/m2
11:19 10.4 °C 8.0 °C 1009.4 hPa NE 4.7 km/h 9.7 km/h 85% 0.0 mm 109.00 W/m2
11:24 10.4 °C 8.0 °C 1009.4 hPa Calm   11.3 km/h 85% 0.0 mm 97.00 W/m2
11:29 10.5 °C 8.1 °C 1009.4 hPa NNE 7.9 km/h 12.9 km/h 85% 0.0 mm 81.00 W/m2
11:34 10.5 °C 7.9 °C 1009.4 hPa North 4.7 km/h 14.5 km/h 84% 0.0 mm 74.00 W/m2
11:39 10.5 °C 7.9 °C 1009.4 hPa ENE 7.9 km/h 16.1 km/h 84% 0.0 mm 81.00 W/m2
11:44 10.5 °C 7.9 °C 1009.4 hPa NE 3.2 km/h 12.9 km/h 84% 0.0 mm 72.00 W/m2
11:49 10.5 °C 7.9 °C 1009.4 hPa NE 7.9 km/h 17.7 km/h 84% 0.3 mm 98.00 W/m2
11:54 10.5 °C 7.9 °C 1009.4 hPa North 7.9 km/h 8.0 km/h 84% 0.3 mm 91.00 W/m2
11:59 10.5 °C 7.9 °C 1009.4 hPa NE 6.4 km/h 6.4 km/h 84% 0.3 mm 114.00 W/m2
12:04 10.6 °C 8.0 °C 1009.4 hPa NNE 6.4 km/h 14.5 km/h 84% 0.3 mm 100.00 W/m2
12:09 10.5 °C 7.9 °C 1009.4 hPa ENE 4.7 km/h 17.7 km/h 84% 0.3 mm 111.00 W/m2
12:14 10.7 °C 8.1 °C 1009.0 hPa NE 6.4 km/h 8.0 km/h 84% 0.3 mm 125.00 W/m2
12:19 10.8 °C 8.2 °C 1009.0 hPa NNE 3.2 km/h 11.3 km/h 84% 0.3 mm 121.00 W/m2
12:24 10.8 °C 8.2 °C 1009.0 hPa Calm   4.8 km/h 84% 0.3 mm 211.00 W/m2
12:29 10.9 °C 8.3 °C 1009.4 hPa NNE 4.7 km/h 17.7 km/h 84% 0.3 mm 185.00 W/m2
12:34 11.0 °C 8.4 °C 1009.4 hPa North 3.2 km/h 6.4 km/h 84% 0.3 mm 176.00 W/m2
12:39 11.1 °C 8.5 °C 1009.0 hPa NE 6.4 km/h 12.9 km/h 84% 0.3 mm 192.00 W/m2
12:44 11.2 °C 8.6 °C 1009.0 hPa North 3.2 km/h 8.0 km/h 84% 0.3 mm 144.00 W/m2
12:49 11.2 °C 8.4 °C 1009.0 hPa Calm   6.4 km/h 83% 0.0 mm 90.00 W/m2
12:54 11.2 °C 8.4 °C 1009.0 hPa NNE 7.9 km/h 8.0 km/h 83% 0.0 mm 95.00 W/m2
12:59 11.3 °C 8.5 °C 1009.0 hPa NE 4.7 km/h 6.4 km/h 83% 0.0 mm 109.00 W/m2
13:04 11.3 °C 8.5 °C 1009.0 hPa Calm   4.8 km/h 83% 0.0 mm 109.00 W/m2
13:09 11.3 °C 8.5 °C 1009.0 hPa NNW 1.4 km/h 3.2 km/h 83% 0.0 mm 91.00 W/m2
13:14 11.4 °C 8.6 °C 1009.0 hPa NNE 9.7 km/h 9.7 km/h 83% 0.0 mm 76.00 W/m2
13:19 11.4 °C 8.6 °C 1009.0 hPa NNE 3.2 km/h 4.8 km/h 83% 0.0 mm 84.00 W/m2
13:24 11.4 °C 8.6 °C 1009.0 hPa North 3.2 km/h 4.8 km/h 83% 0.0 mm 81.00 W/m2
13:29 11.4 °C 8.6 °C 1009.0 hPa NE 14.5 km/h 14.5 km/h 83% 0.0 mm 79.00 W/m2
13:34 11.3 °C 8.5 °C 1009.0 hPa North 4.7 km/h 11.3 km/h 83% 0.0 mm 90.00 W/m2
13:39 11.3 °C 8.5 °C 1009.0 hPa NE 16.1 km/h 16.1 km/h 83% 0.0 mm 88.00 W/m2
13:44 11.4 °C 8.6 °C 1009.0 hPa East 3.2 km/h 4.8 km/h 83% 0.0 mm 76.00 W/m2
13:49 11.4 °C 8.6 °C 1009.0 hPa NNE 3.2 km/h 12.9 km/h 83% 0.0 mm 84.00 W/m2
13:54 11.4 °C 8.8 °C 1009.0 hPa ENE 7.9 km/h 8.0 km/h 84% 0.0 mm 100.00 W/m2
13:59 11.4 °C 8.6 °C 1009.0 hPa ENE 4.7 km/h 11.3 km/h 83% 0.0 mm 81.00 W/m2
14:04 11.4 °C 8.8 °C 1009.0 hPa NNE 3.2 km/h 6.4 km/h 84% 0.0 mm 98.00 W/m2
14:09 11.4 °C 8.8 °C 1009.0 hPa Calm   11.3 km/h 84% 0.0 mm 76.00 W/m2
14:14 11.4 °C 8.8 °C 1009.0 hPa NE 3.2 km/h 8.0 km/h 84% 0.0 mm 83.00 W/m2
14:19 11.5 °C 8.9 °C 1008.7 hPa NE 4.7 km/h 8.0 km/h 84% 0.0 mm 113.00 W/m2
14:24 11.5 °C 8.9 °C 1008.7 hPa NE 1.4 km/h 12.9 km/h 84% 0.0 mm 139.00 W/m2
14:29 11.7 °C 9.1 °C 1008.7 hPa Calm   3.2 km/h 84% 0.0 mm 171.00 W/m2
14:34 11.8 °C 9.2 °C 1008.7 hPa North 4.7 km/h 8.0 km/h 84% 0.0 mm 183.00 W/m2
14:39 11.8 °C 9.0 °C 1008.7 hPa North 1.4 km/h 6.4 km/h 83% 0.0 mm 104.00 W/m2
14:44 11.8 °C 9.0 °C 1008.7 hPa ENE 4.7 km/h 11.3 km/h 83% 0.0 mm 97.00 W/m2
14:49 11.9 °C 9.1 °C 1008.7 hPa NNE 9.7 km/h 19.3 km/h 83% 0.0 mm 86.00 W/m2
14:54 11.8 °C 9.0 °C 1008.7 hPa NE 11.1 km/h 17.7 km/h 83% 0.0 mm 111.00 W/m2
14:59 11.8 °C 9.0 °C 1008.4 hPa Calm   4.8 km/h 83% 0.0 mm 207.00 W/m2
15:04 11.9 °C 9.3 °C 1008.4 hPa Calm   14.5 km/h 84% 0.0 mm 229.00 W/m2
15:09 12.1 °C 9.3 °C 1008.4 hPa NNE 1.4 km/h 8.0 km/h 83% 0.0 mm 153.00 W/m2
15:14 12.2 °C 9.4 °C 1008.4 hPa Calm   9.7 km/h 83% 0.0 mm 97.00 W/m2
15:19 12.2 °C 9.4 °C 1008.4 hPa ENE 4.7 km/h 11.3 km/h 83% 0.0 mm 156.00 W/m2
15:24 12.3 °C 9.3 °C 1008.4 hPa East 4.7 km/h 9.7 km/h 82% 0.0 mm 243.00 W/m2
15:29 12.5 °C 9.5 °C 1008.4 hPa NE 6.4 km/h 16.1 km/h 82% 0.0 mm 253.00 W/m2
15:34 12.5 °C 9.5 °C 1008.4 hPa North 7.9 km/h 8.0 km/h 82% 0.0 mm 223.00 W/m2
15:39 12.6 °C 9.4 °C 1008.0 hPa North 7.9 km/h 14.5 km/h 81% 0.0 mm 323.00 W/m2
15:44 12.8 °C 9.6 °C 1008.4 hPa NE 1.4 km/h 9.7 km/h 81% 0.0 mm 169.00 W/m2
15:49 12.8 °C 9.6 °C 1008.4 hPa ENE 16.1 km/h 16.1 km/h 81% 0.0 mm 209.00 W/m2
15:54 12.9 °C 9.7 °C 1008.4 hPa NNE 4.7 km/h 6.4 km/h 81% 0.0 mm 197.00 W/m2
15:59 13.0 °C 9.6 °C 1008.0 hPa ENE 1.4 km/h 11.3 km/h 80% 0.0 mm 155.00 W/m2
16:04 13.0 °C 9.6 °C 1008.0 hPa ENE 3.2 km/h 11.3 km/h 80% 0.0 mm 120.00 W/m2
16:09 12.9 °C 9.5 °C 1008.0 hPa ENE 6.4 km/h 12.9 km/h 80% 0.0 mm 95.00 W/m2
16:14 12.8 °C 9.4 °C 1008.0 hPa NE 1.4 km/h 8.0 km/h 80% 0.0 mm 76.00 W/m2
16:19 12.7 °C 9.3 °C 1008.0 hPa Calm   8.0 km/h 80% 0.0 mm 120.00 W/m2
16:24 12.7 °C 9.3 °C 1008.0 hPa NW 3.2 km/h 11.3 km/h 80% 0.0 mm 142.00 W/m2
16:29 12.8 °C 9.6 °C 1008.0 hPa NNW 6.4 km/h 11.3 km/h 81% 0.0 mm 102.00 W/m2
16:34 12.7 °C 9.3 °C 1008.0 hPa WNW 6.4 km/h 12.9 km/h 80% 0.0 mm 104.00 W/m2
16:39 12.7 °C 9.3 °C 1008.0 hPa North 1.4 km/h 8.0 km/h 80% 0.0 mm 142.00 W/m2
16:44 12.7 °C 9.5 °C 1008.0 hPa North 6.4 km/h 12.9 km/h 81% 0.0 mm 104.00 W/m2
16:49 12.7 °C 9.5 °C 1007.7 hPa NNE 1.4 km/h 6.4 km/h 81% 0.0 mm 132.00 W/m2
16:54 12.8 °C 9.6 °C 1007.7 hPa North 1.4 km/h 8.0 km/h 81% 0.0 mm 123.00 W/m2
16:59 12.8 °C 9.6 °C 1007.7 hPa Calm   6.4 km/h 81% 0.0 mm 79.00 W/m2
17:04 12.8 °C 9.6 °C 1007.7 hPa NNE 6.4 km/h 8.0 km/h 81% 0.0 mm 125.00 W/m2
17:09 12.8 °C 9.6 °C 1007.7 hPa NNE 3.2 km/h 12.9 km/h 81% 0.0 mm 88.00 W/m2
17:14 12.7 °C 9.5 °C 1007.7 hPa North 9.7 km/h 11.3 km/h 81% 0.0 mm 67.00 W/m2
17:19 12.5 °C 9.5 °C 1007.7 hPa North 1.4 km/h 9.7 km/h 82% 0.0 mm 62.00 W/m2
17:24 12.4 °C 9.4 °C 1007.7 hPa North 6.4 km/h 12.9 km/h 82% 0.0 mm 56.00 W/m2
17:29 12.4 °C 9.4 °C 1007.7 hPa Calm   8.0 km/h 82% 0.0 mm 44.00 W/m2
17:32 12.4 °C 9.4 °C 1007.3 hPa Calm   4.8 km/h 82% 0.0 mm 60.00 W/m2
17:37 12.3 °C 9.5 °C 1007.3 hPa Calm   3.2 km/h 83% 0.0 mm 76.00 W/m2
17:42 12.2 °C 9.4 °C 1007.3 hPa NNW 1.4 km/h 3.2 km/h 83% 0.0 mm 76.00 W/m2
17:47 12.3 °C 9.7 °C 1007.3 hPa Calm   3.2 km/h 84% 0.0 mm 67.00 W/m2
17:51 12.3 °C 9.7 °C 1007.3 hPa Calm   1.6 km/h 84% 0.0 mm 79.00 W/m2
17:57 12.4 °C 9.8 °C 1007.3 hPa Calm   1.6 km/h 84% 0.0 mm 76.00 W/m2
17:59 12.4 °C 9.8 °C 1007.3 hPa Calm   1.6 km/h 84% 0.0 mm 74.00 W/m2
18:05 12.4 °C 9.8 °C 1007.3 hPa Calm   1.6 km/h 84% 0.0 mm 69.00 W/m2
18:09 12.4 °C 9.8 °C 1007.3 hPa Calm     84% 0.0 mm 65.00 W/m2
18:11 12.3 °C 9.7 °C 1007.3 hPa Calm   1.6 km/h 84% 0.0 mm 70.00 W/m2
18:17 12.4 °C 9.8 °C 1007.3 hPa Calm   1.6 km/h 84% 0.0 mm 88.00 W/m2
18:20 12.4 °C 9.8 °C 1007.0 hPa Calm   1.6 km/h 84% 0.0 mm 97.00 W/m2
18:26 12.4 °C 9.8 °C 1007.0 hPa NNW 1.4 km/h 1.6 km/h 84% 0.0 mm 91.00 W/m2
18:31 12.3 °C 9.7 °C 1007.0 hPa Calm   1.6 km/h 84% 0.0 mm 81.00 W/m2
18:35 12.4 °C 9.8 °C 1007.0 hPa Calm   3.2 km/h 84% 0.0 mm 67.00 W/m2
18:39 12.4 °C 9.8 °C 1007.0 hPa Calm   1.6 km/h 84% 0.0 mm 56.00 W/m2
18:46 12.5 °C 9.9 °C 1007.0 hPa Calm   1.6 km/h 84% 0.0 mm 53.00 W/m2
18:56 12.6 °C 10.0 °C 1007.0 hPa Calm   4.8 km/h 84% 0.0 mm 67.00 W/m2
19:04 12.6 °C 10.0 °C 1007.0 hPa NNW 1.4 km/h 3.2 km/h 84% 0.0 mm 63.00 W/m2
19:09 12.5 °C 9.9 °C 1007.0 hPa Calm   3.2 km/h 84% 0.0 mm 56.00 W/m2
19:14 12.6 °C 10.0 °C 1007.0 hPa NNW 1.4 km/h 3.2 km/h 84% 0.0 mm 44.00 W/m2
19:19 12.7 °C 10.1 °C 1007.0 hPa Calm     84% 0.0 mm 40.00 W/m2
19:24 12.7 °C 10.1 °C 1007.0 hPa Calm     84% 0.0 mm 40.00 W/m2
19:29 12.7 °C 10.1 °C 1007.0 hPa Calm     84% 0.0 mm 37.00 W/m2
19:34 12.7 °C 10.1 °C 1007.0 hPa Calm     84% 0.0 mm 32.00 W/m2
19:39 12.8 °C 10.2 °C 1007.0 hPa Calm     84% 0.0 mm 25.00 W/m2
19:44 12.8 °C 10.2 °C 1007.0 hPa Calm     84% 0.0 mm 21.00 W/m2
19:49 12.8 °C 10.2 °C 1007.0 hPa Calm     84% 0.0 mm 19.00 W/m2
19:54 12.8 °C 10.2 °C 1007.0 hPa Calm     84% 0.0 mm 18.00 W/m2
19:59 12.8 °C 10.2 °C 1007.0 hPa NNW 1.4 km/h 1.6 km/h 84% 0.0 mm 14.00 W/m2
20:04 12.7 °C 10.1 °C 1007.0 hPa Calm     84% 0.0 mm 12.00 W/m2
20:09 12.6 °C 10.0 °C 1007.0 hPa Calm     84% 0.0 mm 11.00 W/m2
20:14 12.6 °C 10.1 °C 1007.0 hPa Calm     85% 0.0 mm 9.00 W/m2
20:19 12.7 °C 10.2 °C 1007.0 hPa Calm     85% 0.0 mm 9.00 W/m2
20:24 12.6 °C 10.1 °C 1007.3 hPa Calm     85% 0.0 mm 9.00 W/m2
20:29 12.6 °C 10.1 °C 1007.3 hPa Calm     85% 0.0 mm 7.00 W/m2
20:34 12.5 °C 10.0 °C 1007.3 hPa Calm     85% 0.0 mm 5.00 W/m2
20:39 12.4 °C 9.9 °C 1007.3 hPa NE 12.9 km/h 12.9 km/h 85% 0.0 mm 5.00 W/m2
20:44 12.3 °C 9.7 °C 1007.3 hPa NNE 3.2 km/h 8.0 km/h 84% 0.0 mm 0.00 W/m2
20:49 12.2 °C 9.2 °C 1007.3 hPa NE 6.4 km/h 14.5 km/h 82% 0.0 mm 0.00 W/m2
20:54 12.2 °C 8.9 °C 1007.3 hPa NE 3.2 km/h 4.8 km/h 80% 0.0 mm 0.00 W/m2
20:59 12.2 °C 8.1 °C 1007.3 hPa NE 4.7 km/h 11.3 km/h 76% 0.0 mm 0.00 W/m2
21:04 12.3 °C 7.8 °C 1007.3 hPa Calm   3.2 km/h 74% 0.0 mm 0.00 W/m2
21:09 12.3 °C 7.4 °C 1007.3 hPa Calm   3.2 km/h 72% 0.0 mm 0.00 W/m2
21:14 12.3 °C 7.4 °C 1007.3 hPa ENE 1.4 km/h 8.0 km/h 72% 0.0 mm 0.00 W/m2
21:19 12.3 °C 7.0 °C 1007.3 hPa Calm   4.8 km/h 70% 0.0 mm 0.00 W/m2
21:24 12.2 °C 6.7 °C 1007.3 hPa East 3.2 km/h 8.0 km/h 69% 0.0 mm 0.00 W/m2
21:29 12.2 °C 6.7 °C 1007.3 hPa Calm   4.8 km/h 69% 0.0 mm 0.00 W/m2
21:34 12.1 °C 6.6 °C 1007.3 hPa East 9.7 km/h 9.7 km/h 69% 0.0 mm 0.00 W/m2
21:39 12.1 °C 6.6 °C 1007.3 hPa Calm   3.2 km/h 69% 0.0 mm 0.00 W/m2
21:44 12.1 °C 6.6 °C 1007.3 hPa Calm   3.2 km/h 69% 0.0 mm 0.00 W/m2
21:49 12.0 °C 6.5 °C 1007.3 hPa Calm   3.2 km/h 69% 0.0 mm 0.00 W/m2
21:54 12.0 °C 6.7 °C 1007.3 hPa Calm   1.6 km/h 70% 0.0 mm 0.00 W/m2
21:59 11.9 °C 6.6 °C 1007.0 hPa Calm   1.6 km/h 70% 0.0 mm 0.00 W/m2
22:04 11.9 °C 6.6 °C 1007.0 hPa Calm     70% 0.0 mm 0.00 W/m2
22:09 11.8 °C 6.7 °C 1007.0 hPa Calm     71% 0.0 mm 0.00 W/m2
22:14 11.8 °C 6.7 °C 1007.0 hPa Calm     71% 0.0 mm 0.00 W/m2
22:19 11.7 °C 6.6 °C 1007.3 hPa Calm     71% 0.0 mm 0.00 W/m2
22:24 11.7 °C 6.6 °C 1007.3 hPa Calm     71% 0.0 mm 0.00 W/m2
22:29 11.6 °C 6.7 °C 1007.3 hPa Calm     72% 0.0 mm 0.00 W/m2
22:34 11.5 °C 6.6 °C 1007.3 hPa Calm     72% 0.0 mm 0.00 W/m2
22:39 11.5 °C 6.6 °C 1007.3 hPa Calm     72% 0.0 mm 0.00 W/m2
22:44 11.4 °C 6.5 °C 1007.3 hPa Calm     72% 0.0 mm 0.00 W/m2
22:49 11.4 °C 6.3 °C 1007.3 hPa Calm     71% 0.0 mm 0.00 W/m2
22:54 11.4 °C 6.5 °C 1007.3 hPa Calm     72% 0.0 mm 0.00 W/m2
22:59 11.4 °C 6.5 °C 1007.3 hPa Calm     72% 0.0 mm 0.00 W/m2
23:04 11.4 °C 6.5 °C 1007.3 hPa Calm     72% 0.0 mm 0.00 W/m2
23:09 11.3 °C 6.4 °C 1007.3 hPa Calm     72% 0.0 mm 0.00 W/m2
23:14 11.3 °C 6.4 °C 1007.3 hPa Calm     72% 0.0 mm 0.00 W/m2
23:19 11.3 °C 6.4 °C 1007.0 hPa Calm     72% 0.0 mm 0.00 W/m2
23:24 11.3 °C 6.6 °C 1007.3 hPa Calm     73% 0.0 mm 0.00 W/m2
23:29 11.2 °C 6.3 °C 1007.0 hPa Calm     72% 0.0 mm 0.00 W/m2
23:34 11.2 °C 6.3 °C 1007.0 hPa Calm   3.2 km/h 72% 0.0 mm 0.00 W/m2
23:39 11.2 °C 6.3 °C 1007.0 hPa Calm   1.6 km/h 72% 0.0 mm 0.00 W/m2
23:44 11.2 °C 6.3 °C 1007.0 hPa Calm     72% 0.0 mm 0.00 W/m2
23:49 11.2 °C 6.3 °C 1007.0 hPa Calm     72% 0.0 mm 0.00 W/m2
23:54 11.2 °C 6.3 °C 1007.0 hPa Calm     72% 0.0 mm 0.00 W/m2
23:59 11.2 °C 6.5 °C 1007.0 hPa Calm   1.6 km/h 73% 0.0 mm 0.00 W/m2